sensor_id;sensor_type;location;lat;lon;timestamp;P1;durP1;ratioP1;P2;durP2;ratioP2
13441;SDS011;6793;55.662;13.114;2023-07-22T00:01:01;0.00;;;0.00;;
13441;SDS011;6793;55.662;13.114;2023-07-22T00:03:28;0.00;;;0.00;;
13441;SDS011;6793;55.662;13.114;2023-07-22T00:06:04;0.00;;;0.00;;
13441;SDS011;6793;55.662;13.114;2023-07-22T00:08:32;0.00;;;0.00;;
13441;SDS011;6793;55.662;13.114;2023-07-22T00:10:59;0.00;;;0.00;;
13441;SDS011;6793;55.662;13.114;2023-07-22T00:13:26;0.00;;;0.00;;
13441;SDS011;6793;55.662;13.114;2023-07-22T00:15:55;0.00;;;0.00;;
13441;SDS011;6793;55.662;13.114;2023-07-22T00:18:22;0.00;;;0.00;;
13441;SDS011;6793;55.662;13.114;2023-07-22T00:20:49;0.00;;;0.00;;
13441;SDS011;6793;55.662;13.114;2023-07-22T00:23:16;0.00;;;0.00;;
13441;SDS011;6793;55.662;13.114;2023-07-22T00:25:44;0.00;;;0.00;;
13441;SDS011;6793;55.662;13.114;2023-07-22T00:28:11;0.00;;;0.00;;
13441;SDS011;6793;55.662;13.114;2023-07-22T00:30:38;0.00;;;0.00;;
13441;SDS011;6793;55.662;13.114;2023-07-22T00:33:07;0.00;;;0.00;;
13441;SDS011;6793;55.662;13.114;2023-07-22T00:35:34;0.00;;;0.00;;
13441;SDS011;6793;55.662;13.114;2023-07-22T00:38:01;0.00;;;0.00;;
13441;SDS011;6793;55.662;13.114;2023-07-22T00:40:29;0.00;;;0.00;;
13441;SDS011;6793;55.662;13.114;2023-07-22T00:42:57;0.00;;;0.00;;
13441;SDS011;6793;55.662;13.114;2023-07-22T00:45:24;0.00;;;0.00;;
13441;SDS011;6793;55.662;13.114;2023-07-22T00:47:51;0.00;;;0.00;;
13441;SDS011;6793;55.662;13.114;2023-07-22T00:50:19;0.00;;;0.00;;
13441;SDS011;6793;55.662;13.114;2023-07-22T00:52:47;0.00;;;0.00;;
13441;SDS011;6793;55.662;13.114;2023-07-22T00:55:14;0.00;;;0.00;;
13441;SDS011;6793;55.662;13.114;2023-07-22T00:57:41;0.00;;;0.00;;
13441;SDS011;6793;55.662;13.114;2023-07-22T01:00:09;0.00;;;0.00;;
13441;SDS011;6793;55.662;13.114;2023-07-22T01:02:37;0.00;;;0.00;;
13441;SDS011;6793;55.662;13.114;2023-07-22T01:05:04;0.00;;;0.00;;
13441;SDS011;6793;55.662;13.114;2023-07-22T01:07:32;0.00;;;0.00;;
13441;SDS011;6793;55.662;13.114;2023-07-22T01:09:59;0.00;;;0.00;;
13441;SDS011;6793;55.662;13.114;2023-07-22T01:12:27;0.00;;;0.00;;
13441;SDS011;6793;55.662;13.114;2023-07-22T01:14:54;0.00;;;0.00;;
13441;SDS011;6793;55.662;13.114;2023-07-22T01:17:21;0.00;;;0.00;;
13441;SDS011;6793;55.662;13.114;2023-07-22T01:19:48;0.00;;;0.00;;
13441;SDS011;6793;55.662;13.114;2023-07-22T01:22:15;0.00;;;0.00;;
13441;SDS011;6793;55.662;13.114;2023-07-22T01:24:44;0.00;;;0.00;;
13441;SDS011;6793;55.662;13.114;2023-07-22T01:27:12;0.00;;;0.00;;
13441;SDS011;6793;55.662;13.114;2023-07-22T01:29:39;0.00;;;0.00;;
13441;SDS011;6793;55.662;13.114;2023-07-22T01:32:06;0.00;;;0.00;;
13441;SDS011;6793;55.662;13.114;2023-07-22T01:34:33;0.00;;;0.00;;
13441;SDS011;6793;55.662;13.114;2023-07-22T01:37:00;0.00;;;0.00;;
13441;SDS011;6793;55.662;13.114;2023-07-22T01:39:29;0.00;;;0.00;;
13441;SDS011;6793;55.662;13.114;2023-07-22T01:41:58;0.00;;;0.00;;
13441;SDS011;6793;55.662;13.114;2023-07-22T01:44:25;0.00;;;0.00;;
13441;SDS011;6793;55.662;13.114;2023-07-22T01:46:52;0.00;;;0.00;;
13441;SDS011;6793;55.662;13.114;2023-07-22T01:49:19;0.00;;;0.00;;
13441;SDS011;6793;55.662;13.114;2023-07-22T01:51:46;0.00;;;0.00;;
13441;SDS011;6793;55.662;13.114;2023-07-22T01:54:13;0.00;;;0.00;;
13441;SDS011;6793;55.662;13.114;2023-07-22T01:56:40;0.00;;;0.00;;
13441;SDS011;6793;55.662;13.114;2023-07-22T01:59:08;0.00;;;0.00;;
13441;SDS011;6793;55.662;13.114;2023-07-22T02:01:35;0.00;;;0.00;;
13441;SDS011;6793;55.662;13.114;2023-07-22T02:04:02;0.00;;;0.00;;
13441;SDS011;6793;55.662;13.114;2023-07-22T02:06:30;0.00;;;0.00;;
13441;SDS011;6793;55.662;13.114;2023-07-22T02:08:57;0.00;;;0.00;;
13441;SDS011;6793;55.662;13.114;2023-07-22T02:11:24;0.00;;;0.00;;
13441;SDS011;6793;55.662;13.114;2023-07-22T02:13:51;0.00;;;0.00;;
13441;SDS011;6793;55.662;13.114;2023-07-22T02:16:19;0.00;;;0.00;;
13441;SDS011;6793;55.662;13.114;2023-07-22T02:18:46;0.00;;;0.00;;
13441;SDS011;6793;55.662;13.114;2023-07-22T02:21:13;0.00;;;0.00;;
13441;SDS011;6793;55.662;13.114;2023-07-22T02:23:40;0.00;;;0.00;;
13441;SDS011;6793;55.662;13.114;2023-07-22T02:26:07;0.00;;;0.00;;
13441;SDS011;6793;55.662;13.114;2023-07-22T02:28:34;0.00;;;0.00;;
13441;SDS011;6793;55.662;13.114;2023-07-22T02:31:02;0.00;;;0.00;;
13441;SDS011;6793;55.662;13.114;2023-07-22T02:33:33;0.00;;;0.00;;
13441;SDS011;6793;55.662;13.114;2023-07-22T02:36:00;0.00;;;0.00;;
13441;SDS011;6793;55.662;13.114;2023-07-22T02:38:27;0.00;;;0.00;;
13441;SDS011;6793;55.662;13.114;2023-07-22T02:40:54;0.00;;;0.00;;
13441;SDS011;6793;55.662;13.114;2023-07-22T02:43:21;0.00;;;0.00;;
13441;SDS011;6793;55.662;13.114;2023-07-22T02:45:48;0.00;;;0.00;;
13441;SDS011;6793;55.662;13.114;2023-07-22T02:48:15;0.00;;;0.00;;
13441;SDS011;6793;55.662;13.114;2023-07-22T02:50:44;0.00;;;0.00;;
13441;SDS011;6793;55.662;13.114;2023-07-22T02:53:11;0.00;;;0.00;;
13441;SDS011;6793;55.662;13.114;2023-07-22T02:55:38;0.00;;;0.00;;
13441;SDS011;6793;55.662;13.114;2023-07-22T02:58:05;0.00;;;0.00;;
13441;SDS011;6793;55.662;13.114;2023-07-22T03:00:32;0.00;;;0.00;;
13441;SDS011;6793;55.662;13.114;2023-07-22T03:02:59;0.00;;;0.00;;
13441;SDS011;6793;55.662;13.114;2023-07-22T03:05:27;0.00;;;0.00;;
13441;SDS011;6793;55.662;13.114;2023-07-22T03:07:55;0.00;;;0.00;;
13441;SDS011;6793;55.662;13.114;2023-07-22T03:10:22;0.00;;;0.00;;
13441;SDS011;6793;55.662;13.114;2023-07-22T03:12:50;0.00;;;0.00;;
13441;SDS011;6793;55.662;13.114;2023-07-22T03:15:20;0.00;;;0.00;;
13441;SDS011;6793;55.662;13.114;2023-07-22T03:17:47;0.00;;;0.00;;
13441;SDS011;6793;55.662;13.114;2023-07-22T03:20:15;0.00;;;0.00;;
13441;SDS011;6793;55.662;13.114;2023-07-22T03:22:44;0.00;;;0.00;;
13441;SDS011;6793;55.662;13.114;2023-07-22T03:25:12;0.00;;;0.00;;
13441;SDS011;6793;55.662;13.114;2023-07-22T03:27:42;0.00;;;0.00;;
13441;SDS011;6793;55.662;13.114;2023-07-22T03:30:11;0.00;;;0.00;;
13441;SDS011;6793;55.662;13.114;2023-07-22T03:32:39;0.00;;;0.00;;
13441;SDS011;6793;55.662;13.114;2023-07-22T03:35:07;0.00;;;0.00;;
13441;SDS011;6793;55.662;13.114;2023-07-22T03:37:34;0.00;;;0.00;;
13441;SDS011;6793;55.662;13.114;2023-07-22T03:40:02;0.00;;;0.00;;
13441;SDS011;6793;55.662;13.114;2023-07-22T03:42:33;0.00;;;0.00;;
13441;SDS011;6793;55.662;13.114;2023-07-22T03:45:00;0.00;;;0.00;;
13441;SDS011;6793;55.662;13.114;2023-07-22T03:47:27;0.00;;;0.00;;
13441;SDS011;6793;55.662;13.114;2023-07-22T03:49:54;0.00;;;0.00;;
13441;SDS011;6793;55.662;13.114;2023-07-22T03:52:21;0.00;;;0.00;;
13441;SDS011;6793;55.662;13.114;2023-07-22T03:54:48;0.00;;;0.00;;
13441;SDS011;6793;55.662;13.114;2023-07-22T03:57:15;0.00;;;0.00;;
13441;SDS011;6793;55.662;13.114;2023-07-22T03:59:44;0.00;;;0.00;;
13441;SDS011;6793;55.662;13.114;2023-07-22T04:02:11;0.00;;;0.00;;
13441;SDS011;6793;55.662;13.114;2023-07-22T04:04:38;0.00;;;0.00;;
13441;SDS011;6793;55.662;13.114;2023-07-22T04:07:05;0.00;;;0.00;;
13441;SDS011;6793;55.662;13.114;2023-07-22T04:09:33;0.00;;;0.00;;
13441;SDS011;6793;55.662;13.114;2023-07-22T04:12:00;0.00;;;0.00;;
13441;SDS011;6793;55.662;13.114;2023-07-22T04:14:27;0.00;;;0.00;;
13441;SDS011;6793;55.662;13.114;2023-07-22T04:16:55;0.00;;;0.00;;
13441;SDS011;6793;55.662;13.114;2023-07-22T04:19:23;0.00;;;0.00;;
13441;SDS011;6793;55.662;13.114;2023-07-22T04:21:50;0.00;;;0.00;;
13441;SDS011;6793;55.662;13.114;2023-07-22T04:24:17;0.00;;;0.00;;
13441;SDS011;6793;55.662;13.114;2023-07-22T04:26:44;0.00;;;0.00;;
13441;SDS011;6793;55.662;13.114;2023-07-22T04:29:11;0.00;;;0.00;;
13441;SDS011;6793;55.662;13.114;2023-07-22T04:31:38;0.00;;;0.00;;
13441;SDS011;6793;55.662;13.114;2023-07-22T04:34:07;0.00;;;0.00;;
13441;SDS011;6793;55.662;13.114;2023-07-22T04:36:34;0.00;;;0.00;;
13441;SDS011;6793;55.662;13.114;2023-07-22T04:39:01;0.00;;;0.00;;
13441;SDS011;6793;55.662;13.114;2023-07-22T04:41:30;0.00;;;0.00;;
13441;SDS011;6793;55.662;13.114;2023-07-22T04:43:57;0.00;;;0.00;;
13441;SDS011;6793;55.662;13.114;2023-07-22T04:46:24;0.00;;;0.00;;
13441;SDS011;6793;55.662;13.114;2023-07-22T04:48:53;0.00;;;0.00;;
13441;SDS011;6793;55.662;13.114;2023-07-22T04:51:21;0.00;;;0.00;;
13441;SDS011;6793;55.662;13.114;2023-07-22T04:53:49;0.00;;;0.00;;
13441;SDS011;6793;55.662;13.114;2023-07-22T04:56:16;0.00;;;0.00;;
13441;SDS011;6793;55.662;13.114;2023-07-22T04:58:43;0.00;;;0.00;;
13441;SDS011;6793;55.662;13.114;2023-07-22T05:01:10;0.00;;;0.00;;
13441;SDS011;6793;55.662;13.114;2023-07-22T05:03:37;0.00;;;0.00;;
13441;SDS011;6793;55.662;13.114;2023-07-22T05:06:05;0.00;;;0.00;;
13441;SDS011;6793;55.662;13.114;2023-07-22T05:08:34;0.00;;;0.00;;
13441;SDS011;6793;55.662;13.114;2023-07-22T05:11:03;0.00;;;0.00;;
13441;SDS011;6793;55.662;13.114;2023-07-22T05:13:30;0.00;;;0.00;;
13441;SDS011;6793;55.662;13.114;2023-07-22T05:15:57;0.00;;;0.00;;
13441;SDS011;6793;55.662;13.114;2023-07-22T05:18:24;0.00;;;0.00;;
13441;SDS011;6793;55.662;13.114;2023-07-22T05:20:51;0.00;;;0.00;;
13441;SDS011;6793;55.662;13.114;2023-07-22T05:23:18;0.00;;;0.00;;
13441;SDS011;6793;55.662;13.114;2023-07-22T05:25:51;0.00;;;0.00;;
13441;SDS011;6793;55.662;13.114;2023-07-22T05:28:18;0.00;;;0.00;;
13441;SDS011;6793;55.662;13.114;2023-07-22T05:30:45;0.00;;;0.00;;
13441;SDS011;6793;55.662;13.114;2023-07-22T05:33:13;0.00;;;0.00;;
13441;SDS011;6793;55.662;13.114;2023-07-22T05:35:40;0.00;;;0.00;;
13441;SDS011;6793;55.662;13.114;2023-07-22T05:38:07;0.00;;;0.00;;
13441;SDS011;6793;55.662;13.114;2023-07-22T05:40:34;0.00;;;0.00;;
13441;SDS011;6793;55.662;13.114;2023-07-22T05:43:02;0.00;;;0.00;;
13441;SDS011;6793;55.662;13.114;2023-07-22T05:45:29;0.00;;;0.00;;
13441;SDS011;6793;55.662;13.114;2023-07-22T05:47:56;0.00;;;0.00;;
13441;SDS011;6793;55.662;13.114;2023-07-22T05:50:23;0.00;;;0.00;;
13441;SDS011;6793;55.662;13.114;2023-07-22T05:52:50;0.00;;;0.00;;
13441;SDS011;6793;55.662;13.114;2023-07-22T05:55:17;0.00;;;0.00;;
13441;SDS011;6793;55.662;13.114;2023-07-22T05:57:44;0.00;;;0.00;;
13441;SDS011;6793;55.662;13.114;2023-07-22T06:00:13;0.00;;;0.00;;
13441;SDS011;6793;55.662;13.114;2023-07-22T06:02:40;0.00;;;0.00;;
13441;SDS011;6793;55.662;13.114;2023-07-22T06:05:08;0.00;;;0.00;;
13441;SDS011;6793;55.662;13.114;2023-07-22T06:07:35;0.00;;;0.00;;
13441;SDS011;6793;55.662;13.114;2023-07-22T06:10:02;0.00;;;0.00;;
13441;SDS011;6793;55.662;13.114;2023-07-22T06:12:29;0.00;;;0.00;;
13441;SDS011;6793;55.662;13.114;2023-07-22T06:14:56;0.00;;;0.00;;
13441;SDS011;6793;55.662;13.114;2023-07-22T06:17:25;0.00;;;0.00;;
13441;SDS011;6793;55.662;13.114;2023-07-22T06:19:52;0.00;;;0.00;;
13441;SDS011;6793;55.662;13.114;2023-07-22T06:22:19;0.00;;;0.00;;
13441;SDS011;6793;55.662;13.114;2023-07-22T06:24:46;0.00;;;0.00;;
13441;SDS011;6793;55.662;13.114;2023-07-22T06:27:13;0.00;;;0.00;;
13441;SDS011;6793;55.662;13.114;2023-07-22T06:29:40;0.00;;;0.00;;
13441;SDS011;6793;55.662;13.114;2023-07-22T06:32:07;0.00;;;0.00;;
13441;SDS011;6793;55.662;13.114;2023-07-22T06:34:36;0.00;;;0.00;;
13441;SDS011;6793;55.662;13.114;2023-07-22T06:37:03;0.00;;;0.00;;
13441;SDS011;6793;55.662;13.114;2023-07-22T06:39:30;0.00;;;0.00;;
13441;SDS011;6793;55.662;13.114;2023-07-22T06:41:57;0.00;;;0.00;;
13441;SDS011;6793;55.662;13.114;2023-07-22T06:44:24;0.00;;;0.00;;
13441;SDS011;6793;55.662;13.114;2023-07-22T06:46:51;0.00;;;0.00;;
13441;SDS011;6793;55.662;13.114;2023-07-22T06:49:18;0.00;;;0.00;;
13441;SDS011;6793;55.662;13.114;2023-07-22T06:51:46;0.00;;;0.00;;
13441;SDS011;6793;55.662;13.114;2023-07-22T06:54:14;0.10;;;0.10;;
13441;SDS011;6793;55.662;13.114;2023-07-22T06:56:43;0.10;;;0.10;;
13441;SDS011;6793;55.662;13.114;2023-07-22T06:59:10;0.10;;;0.10;;
13441;SDS011;6793;55.662;13.114;2023-07-22T07:01:37;0.20;;;0.20;;
13441;SDS011;6793;55.662;13.114;2023-07-22T07:04:04;2.05;;;2.05;;
13441;SDS011;6793;55.662;13.114;2023-07-22T07:06:31;0.30;;;0.30;;
13441;SDS011;6793;55.662;13.114;2023-07-22T07:09:00;0.40;;;0.40;;
13441;SDS011;6793;55.662;13.114;2023-07-22T07:11:28;0.40;;;0.40;;
13441;SDS011;6793;55.662;13.114;2023-07-22T07:13:55;0.28;;;0.28;;
13441;SDS011;6793;55.662;13.114;2023-07-22T07:16:23;0.20;;;0.20;;
13441;SDS011;6793;55.662;13.114;2023-07-22T07:18:50;0.30;;;0.30;;
13441;SDS011;6793;55.662;13.114;2023-07-22T07:21:17;0.30;;;0.30;;
13441;SDS011;6793;55.662;13.114;2023-07-22T07:23:44;0.40;;;0.40;;
13441;SDS011;6793;55.662;13.114;2023-07-22T07:26:13;0.20;;;0.20;;
13441;SDS011;6793;55.662;13.114;2023-07-22T07:28:40;0.30;;;0.30;;
13441;SDS011;6793;55.662;13.114;2023-07-22T07:31:07;0.40;;;0.40;;
13441;SDS011;6793;55.662;13.114;2023-07-22T07:33:34;0.40;;;0.40;;
13441;SDS011;6793;55.662;13.114;2023-07-22T07:36:01;0.40;;;0.40;;
13441;SDS011;6793;55.662;13.114;2023-07-22T07:38:29;0.20;;;0.20;;
13441;SDS011;6793;55.662;13.114;2023-07-22T07:40:56;0.20;;;0.20;;
13441;SDS011;6793;55.662;13.114;2023-07-22T07:43:25;0.20;;;0.20;;
13441;SDS011;6793;55.662;13.114;2023-07-22T07:48:34;0.20;;;0.20;;
13441;SDS011;6793;55.662;13.114;2023-07-22T07:51:01;0.40;;;0.40;;
13441;SDS011;6793;55.662;13.114;2023-07-22T07:53:28;0.17;;;0.17;;
13441;SDS011;6793;55.662;13.114;2023-07-22T07:55:55;0.20;;;0.20;;
13441;SDS011;6793;55.662;13.114;2023-07-22T07:58:22;0.20;;;0.20;;
13441;SDS011;6793;55.662;13.114;2023-07-22T08:00:50;0.13;;;0.13;;
13441;SDS011;6793;55.662;13.114;2023-07-22T08:03:17;0.20;;;0.20;;
13441;SDS011;6793;55.662;13.114;2023-07-22T08:05:45;0.20;;;0.20;;
13441;SDS011;6793;55.662;13.114;2023-07-22T08:08:12;0.20;;;0.20;;
13441;SDS011;6793;55.662;13.114;2023-07-22T08:10:39;0.40;;;0.40;;
13441;SDS011;6793;55.662;13.114;2023-07-22T08:13:08;0.40;;;0.40;;
13441;SDS011;6793;55.662;13.114;2023-07-22T08:15:35;0.30;;;0.30;;
13441;SDS011;6793;55.662;13.114;2023-07-22T08:18:03;0.20;;;0.20;;
13441;SDS011;6793;55.662;13.114;2023-07-22T08:20:30;0.30;;;0.30;;
13441;SDS011;6793;55.662;13.114;2023-07-22T08:22:57;0.30;;;0.30;;
13441;SDS011;6793;55.662;13.114;2023-07-22T08:25:24;0.28;;;0.28;;
13441;SDS011;6793;55.662;13.114;2023-07-22T08:27:52;0.20;;;0.20;;
13441;SDS011;6793;55.662;13.114;2023-07-22T08:30:19;0.20;;;0.20;;
13441;SDS011;6793;55.662;13.114;2023-07-22T08:32:46;0.20;;;0.20;;
13441;SDS011;6793;55.662;13.114;2023-07-22T08:35:14;0.30;;;0.30;;
13441;SDS011;6793;55.662;13.114;2023-07-22T08:37:42;0.30;;;0.30;;
13441;SDS011;6793;55.662;13.114;2023-07-22T08:40:12;0.20;;;0.20;;
13441;SDS011;6793;55.662;13.114;2023-07-22T08:42:39;0.30;;;0.30;;
13441;SDS011;6793;55.662;13.114;2023-07-22T08:45:08;0.20;;;0.20;;
13441;SDS011;6793;55.662;13.114;2023-07-22T08:47:36;0.20;;;0.20;;
13441;SDS011;6793;55.662;13.114;2023-07-22T08:50:05;0.30;;;0.30;;
13441;SDS011;6793;55.662;13.114;2023-07-22T08:52:34;0.30;;;0.30;;
13441;SDS011;6793;55.662;13.114;2023-07-22T08:55:01;0.30;;;0.30;;
13441;SDS011;6793;55.662;13.114;2023-07-22T08:57:28;0.30;;;0.30;;
13441;SDS011;6793;55.662;13.114;2023-07-22T08:59:56;0.30;;;0.30;;
13441;SDS011;6793;55.662;13.114;2023-07-22T09:02:24;0.13;;;0.13;;
13441;SDS011;6793;55.662;13.114;2023-07-22T09:04:51;0.20;;;0.20;;
13441;SDS011;6793;55.662;13.114;2023-07-22T09:07:18;0.20;;;0.20;;
13441;SDS011;6793;55.662;13.114;2023-07-22T09:09:46;0.20;;;0.20;;
13441;SDS011;6793;55.662;13.114;2023-07-22T09:12:14;0.20;;;0.20;;
13441;SDS011;6793;55.662;13.114;2023-07-22T09:14:41;0.20;;;0.20;;
13441;SDS011;6793;55.662;13.114;2023-07-22T09:17:08;0.30;;;0.30;;
13441;SDS011;6793;55.662;13.114;2023-07-22T09:19:35;0.20;;;0.20;;
13441;SDS011;6793;55.662;13.114;2023-07-22T09:22:03;0.25;;;0.25;;
13441;SDS011;6793;55.662;13.114;2023-07-22T09:24:30;0.30;;;0.30;;
13441;SDS011;6793;55.662;13.114;2023-07-22T09:26:58;0.28;;;0.28;;
13441;SDS011;6793;55.662;13.114;2023-07-22T09:29:35;0.45;;;0.45;;
13441;SDS011;6793;55.662;13.114;2023-07-22T09:32:02;0.30;;;0.30;;
13441;SDS011;6793;55.662;13.114;2023-07-22T09:34:30;0.30;;;0.30;;
13441;SDS011;6793;55.662;13.114;2023-07-22T09:36:57;0.30;;;0.30;;
13441;SDS011;6793;55.662;13.114;2023-07-22T09:39:26;0.30;;;0.30;;
13441;SDS011;6793;55.662;13.114;2023-07-22T09:41:53;0.30;;;0.30;;
13441;SDS011;6793;55.662;13.114;2023-07-22T09:44:21;0.30;;;0.30;;
13441;SDS011;6793;55.662;13.114;2023-07-22T09:46:48;0.30;;;0.30;;
13441;SDS011;6793;55.662;13.114;2023-07-22T09:49:16;0.30;;;0.30;;
13441;SDS011;6793;55.662;13.114;2023-07-22T09:51:44;0.30;;;0.30;;
13441;SDS011;6793;55.662;13.114;2023-07-22T09:54:11;0.30;;;0.30;;
13441;SDS011;6793;55.662;13.114;2023-07-22T09:56:44;0.40;;;0.40;;
13441;SDS011;6793;55.662;13.114;2023-07-22T09:59:12;0.40;;;0.40;;
13441;SDS011;6793;55.662;13.114;2023-07-22T10:01:41;0.40;;;0.40;;
13441;SDS011;6793;55.662;13.114;2023-07-22T10:04:08;0.40;;;0.40;;
13441;SDS011;6793;55.662;13.114;2023-07-22T10:06:35;0.40;;;0.40;;
13441;SDS011;6793;55.662;13.114;2023-07-22T10:09:03;0.40;;;0.40;;
13441;SDS011;6793;55.662;13.114;2023-07-22T10:11:32;0.50;;;0.50;;
13441;SDS011;6793;55.662;13.114;2023-07-22T10:13:59;0.20;;;0.20;;
13441;SDS011;6793;55.662;13.114;2023-07-22T10:16:28;0.30;;;0.30;;
13441;SDS011;6793;55.662;13.114;2023-07-22T10:18:56;0.20;;;0.20;;
13441;SDS011;6793;55.662;13.114;2023-07-22T10:21:24;0.20;;;0.20;;
13441;SDS011;6793;55.662;13.114;2023-07-22T10:23:51;0.30;;;0.30;;
13441;SDS011;6793;55.662;13.114;2023-07-22T10:26:19;0.20;;;0.20;;
13441;SDS011;6793;55.662;13.114;2023-07-22T10:28:47;0.30;;;0.30;;
13441;SDS011;6793;55.662;13.114;2023-07-22T10:31:14;0.30;;;0.30;;
13441;SDS011;6793;55.662;13.114;2023-07-22T10:33:44;0.40;;;0.40;;
13441;SDS011;6793;55.662;13.114;2023-07-22T10:36:14;0.30;;;0.30;;
13441;SDS011;6793;55.662;13.114;2023-07-22T10:38:41;0.30;;;0.30;;
13441;SDS011;6793;55.662;13.114;2023-07-22T10:41:12;0.30;;;0.30;;
13441;SDS011;6793;55.662;13.114;2023-07-22T10:43:41;0.20;;;0.20;;
13441;SDS011;6793;55.662;13.114;2023-07-22T10:46:12;0.30;;;0.30;;
13441;SDS011;6793;55.662;13.114;2023-07-22T10:48:39;0.30;;;0.30;;
13441;SDS011;6793;55.662;13.114;2023-07-22T10:51:07;0.40;;;0.40;;
13441;SDS011;6793;55.662;13.114;2023-07-22T10:53:40;0.32;;;0.32;;
13441;SDS011;6793;55.662;13.114;2023-07-22T10:56:12;0.30;;;0.30;;
13441;SDS011;6793;55.662;13.114;2023-07-22T10:58:58;0.30;;;0.30;;
13441;SDS011;6793;55.662;13.114;2023-07-22T11:01:32;0.30;;;0.30;;
13441;SDS011;6793;55.662;13.114;2023-07-22T11:06:51;0.30;;;0.30;;
13441;SDS011;6793;55.662;13.114;2023-07-22T11:09:36;0.30;;;0.30;;
13441;SDS011;6793;55.662;13.114;2023-07-22T11:12:04;0.30;;;0.30;;
13441;SDS011;6793;55.662;13.114;2023-07-22T11:14:32;0.30;;;0.30;;
13441;SDS011;6793;55.662;13.114;2023-07-22T11:17:00;0.30;;;0.30;;
13441;SDS011;6793;55.662;13.114;2023-07-22T11:19:28;0.32;;;0.32;;
13441;SDS011;6793;55.662;13.114;2023-07-22T11:21:55;0.20;;;0.20;;
13441;SDS011;6793;55.662;13.114;2023-07-22T11:24:23;0.20;;;0.20;;
13441;SDS011;6793;55.662;13.114;2023-07-22T11:26:52;0.20;;;0.20;;
13441;SDS011;6793;55.662;13.114;2023-07-22T11:29:19;0.30;;;0.30;;
13441;SDS011;6793;55.662;13.114;2023-07-22T11:31:47;0.20;;;0.20;;
13441;SDS011;6793;55.662;13.114;2023-07-22T11:34:15;0.20;;;0.20;;
13441;SDS011;6793;55.662;13.114;2023-07-22T11:36:42;0.20;;;0.20;;
13441;SDS011;6793;55.662;13.114;2023-07-22T11:39:10;0.20;;;0.20;;
13441;SDS011;6793;55.662;13.114;2023-07-22T11:41:38;0.20;;;0.20;;
13441;SDS011;6793;55.662;13.114;2023-07-22T11:44:08;0.20;;;0.20;;
13441;SDS011;6793;55.662;13.114;2023-07-22T11:46:46;0.20;;;0.20;;
13441;SDS011;6793;55.662;13.114;2023-07-22T11:49:13;0.20;;;0.20;;
13441;SDS011;6793;55.662;13.114;2023-07-22T11:51:41;0.40;;;0.40;;
13441;SDS011;6793;55.662;13.114;2023-07-22T11:54:09;0.30;;;0.30;;
13441;SDS011;6793;55.662;13.114;2023-07-22T11:56:37;0.20;;;0.20;;
13441;SDS011;6793;55.662;13.114;2023-07-22T11:59:07;0.20;;;0.20;;
13441;SDS011;6793;55.662;13.114;2023-07-22T12:01:34;0.20;;;0.20;;
13441;SDS011;6793;55.662;13.114;2023-07-22T12:04:01;0.20;;;0.20;;
13441;SDS011;6793;55.662;13.114;2023-07-22T12:06:28;0.20;;;0.20;;
13441;SDS011;6793;55.662;13.114;2023-07-22T12:08:55;0.20;;;0.20;;
13441;SDS011;6793;55.662;13.114;2023-07-22T12:11:23;0.15;;;0.15;;
13441;SDS011;6793;55.662;13.114;2023-07-22T12:14:03;0.20;;;0.20;;
13441;SDS011;6793;55.662;13.114;2023-07-22T12:16:32;0.20;;;0.20;;
13441;SDS011;6793;55.662;13.114;2023-07-22T12:19:00;0.30;;;0.30;;
13441;SDS011;6793;55.662;13.114;2023-07-22T12:21:28;0.22;;;0.22;;
13441;SDS011;6793;55.662;13.114;2023-07-22T12:23:55;0.30;;;0.30;;
13441;SDS011;6793;55.662;13.114;2023-07-22T12:26:22;0.20;;;0.20;;
13441;SDS011;6793;55.662;13.114;2023-07-22T12:28:49;0.20;;;0.20;;
13441;SDS011;6793;55.662;13.114;2023-07-22T12:31:16;0.13;;;0.13;;
13441;SDS011;6793;55.662;13.114;2023-07-22T12:33:44;0.20;;;0.20;;
13441;SDS011;6793;55.662;13.114;2023-07-22T12:36:11;0.10;;;0.10;;
13441;SDS011;6793;55.662;13.114;2023-07-22T12:38:38;0.10;;;0.10;;
13441;SDS011;6793;55.662;13.114;2023-07-22T12:41:06;0.10;;;0.10;;
13441;SDS011;6793;55.662;13.114;2023-07-22T12:43:33;0.10;;;0.10;;
13441;SDS011;6793;55.662;13.114;2023-07-22T12:46:00;0.00;;;0.00;;
13441;SDS011;6793;55.662;13.114;2023-07-22T12:48:27;0.10;;;0.10;;
13441;SDS011;6793;55.662;13.114;2023-07-22T12:50:55;0.08;;;0.08;;
13441;SDS011;6793;55.662;13.114;2023-07-22T12:53:22;0.10;;;0.10;;
13441;SDS011;6793;55.662;13.114;2023-07-22T12:55:49;0.10;;;0.10;;
13441;SDS011;6793;55.662;13.114;2023-07-22T12:58:16;0.10;;;0.10;;
13441;SDS011;6793;55.662;13.114;2023-07-22T13:00:43;0.10;;;0.10;;
13441;SDS011;6793;55.662;13.114;2023-07-22T13:03:10;0.10;;;0.10;;
13441;SDS011;6793;55.662;13.114;2023-07-22T13:05:37;0.10;;;0.10;;
13441;SDS011;6793;55.662;13.114;2023-07-22T13:08:06;0.10;;;0.10;;
13441;SDS011;6793;55.662;13.114;2023-07-22T13:10:33;0.10;;;0.10;;
13441;SDS011;6793;55.662;13.114;2023-07-22T13:13:02;0.10;;;0.10;;
13441;SDS011;6793;55.662;13.114;2023-07-22T13:15:30;0.20;;;0.20;;
13441;SDS011;6793;55.662;13.114;2023-07-22T13:17:57;0.20;;;0.20;;
13441;SDS011;6793;55.662;13.114;2023-07-22T13:20:24;0.20;;;0.20;;
13441;SDS011;6793;55.662;13.114;2023-07-22T13:22:51;0.30;;;0.30;;
13441;SDS011;6793;55.662;13.114;2023-07-22T13:25:19;0.25;;;0.25;;
13441;SDS011;6793;55.662;13.114;2023-07-22T13:27:46;0.20;;;0.20;;
13441;SDS011;6793;55.662;13.114;2023-07-22T13:30:13;0.20;;;0.20;;
13441;SDS011;6793;55.662;13.114;2023-07-22T13:32:40;0.20;;;0.20;;
13441;SDS011;6793;55.662;13.114;2023-07-22T13:35:07;0.20;;;0.20;;
13441;SDS011;6793;55.662;13.114;2023-07-22T13:37:35;0.15;;;0.15;;
13441;SDS011;6793;55.662;13.114;2023-07-22T13:40:03;0.20;;;0.20;;
13441;SDS011;6793;55.662;13.114;2023-07-22T13:42:36;0.20;;;0.20;;
13441;SDS011;6793;55.662;13.114;2023-07-22T13:45:03;0.20;;;0.20;;
13441;SDS011;6793;55.662;13.114;2023-07-22T13:47:30;0.20;;;0.20;;
13441;SDS011;6793;55.662;13.114;2023-07-22T13:49:57;0.20;;;0.20;;
13441;SDS011;6793;55.662;13.114;2023-07-22T13:52:24;0.30;;;0.30;;
13441;SDS011;6793;55.662;13.114;2023-07-22T13:54:51;0.20;;;0.20;;
13441;SDS011;6793;55.662;13.114;2023-07-22T13:57:18;0.25;;;0.25;;
13441;SDS011;6793;55.662;13.114;2023-07-22T13:59:47;0.20;;;0.20;;
13441;SDS011;6793;55.662;13.114;2023-07-22T14:02:14;0.20;;;0.20;;
13441;SDS011;6793;55.662;13.114;2023-07-22T14:04:41;0.20;;;0.20;;
13441;SDS011;6793;55.662;13.114;2023-07-22T14:07:08;0.20;;;0.20;;
13441;SDS011;6793;55.662;13.114;2023-07-22T14:09:35;0.20;;;0.20;;
13441;SDS011;6793;55.662;13.114;2023-07-22T14:12:02;0.20;;;0.20;;
13441;SDS011;6793;55.662;13.114;2023-07-22T14:14:29;0.20;;;0.20;;
13441;SDS011;6793;55.662;13.114;2023-07-22T14:16:58;0.20;;;0.20;;
13441;SDS011;6793;55.662;13.114;2023-07-22T14:19:25;0.20;;;0.20;;
13441;SDS011;6793;55.662;13.114;2023-07-22T14:21:53;0.20;;;0.20;;
13441;SDS011;6793;55.662;13.114;2023-07-22T14:24:20;0.22;;;0.22;;
13441;SDS011;6793;55.662;13.114;2023-07-22T14:26:47;0.20;;;0.20;;
13441;SDS011;6793;55.662;13.114;2023-07-22T14:29:14;0.20;;;0.20;;
13441;SDS011;6793;55.662;13.114;2023-07-22T14:31:41;0.30;;;0.30;;
13441;SDS011;6793;55.662;13.114;2023-07-22T14:34:10;0.30;;;0.30;;
13441;SDS011;6793;55.662;13.114;2023-07-22T14:36:37;0.20;;;0.20;;
13441;SDS011;6793;55.662;13.114;2023-07-22T14:39:04;0.20;;;0.20;;
13441;SDS011;6793;55.662;13.114;2023-07-22T14:41:31;0.30;;;0.30;;
13441;SDS011;6793;55.662;13.114;2023-07-22T14:43:58;0.20;;;0.20;;
13441;SDS011;6793;55.662;13.114;2023-07-22T14:46:25;0.20;;;0.20;;
13441;SDS011;6793;55.662;13.114;2023-07-22T14:48:53;0.20;;;0.20;;
13441;SDS011;6793;55.662;13.114;2023-07-22T14:51:21;0.20;;;0.20;;
13441;SDS011;6793;55.662;13.114;2023-07-22T14:53:48;0.20;;;0.20;;
13441;SDS011;6793;55.662;13.114;2023-07-22T14:56:16;0.30;;;0.30;;